Hagen — V2PB3 — position and weather

sailwx.info

Track history (hours):
 
Tides and Currents Weather Stations Pressure Air Temp Water Temp Dewpoint Dewpoint Depression Visibility Wind Speed Wind Dir Waves Ship Positions

Hagen

Last reported at 2015-Jul-03 12:33 UTC. Time now 2015-Jul-05 04:22 UTC.
Position N 53°42' W 006°07'.

Length 89 m; draft 6.2 m.

Type: Cargo ship. MMSI: 304010898.

Date/timePositionNaut miles runAvg speedWind from/ knotsBaromVisibWave heightAir tempDewpointWater temp
2015-Jul-03 12:33N 53°42' W 006°07'8610.7
2015-Jul-03 04:31N 52°18' W 005°41'9 8.2
2015-Jul-03 03:23N 52°09' W 005°42'6 7.2
2015-Jul-03 02:33N 52°03' W 005°43'8 7.2
2015-Jul-03 01:27N 51°55' W 005°44'308 9.6
2015-Jul-01 17:12N 46°47' W 005°07'20 9.7
2015-Jul-01 15:09N 46°29' W 004°55'175 9.3
2015-Jun-30 20:22N 43°47' W 003°20'7 8.9
2015-Jun-30 19:33N 43°41' W 003°16'18 8.2
2015-Jun-30 17:20N 43°24' W 003°06'10 0.5
2015-Jun-29 21:14N 43°31' W 003°14'20 7.2
2015-Jun-29 18:27N 43°32' W 003°42'61 2.7
2015-Jun-28 19:33N 44°29' W 004°14'123 9.4
2015-Jun-28 06:33N 46°26' W 005°09'2410.1
2015-Jun-28 04:11N 46°48' W 005°21'1110.3
2015-Jun-28 03:05N 46°59' W 005°27'610.1
2015-Jun-28 02:31N 47°04' W 005°29'1010.3
2015-Jun-28 01:33N 47°14' W 005°34'61 9.8
2015-Jun-27 19:22N 48°13' W 005°52'2810.0
2015-Jun-27 16:33N 48°41' W 005°57'112 9.0
2015-Jun-27 04:04N 49°44' W 003°34'44 8.9
2015-Jun-26 23:08N 50°03' W 002°32'2110.9
2015-Jun-26 21:14N 50°08' W 002°01'55 9.6
2015-Jun-26 15:32N 50°23' W 000°39'10 8.1
2015-Jun-26 14:20N 50°25' W 000°24'20 9.5
2015-Jun-26 12:11N 50°31' E 000°07'610.4
2015-Jun-26 11:33N 50°33' E 000°17'1110.6
2015-Jun-26 10:33N 50°37' E 000°32'1010.4
2015-Jun-26 09:33N 50°42' E 000°46'1110.5
2015-Jun-26 08:33N 50°48' E 000°59'9 9.2
2015-Jun-26 07:33N 50°53' E 001°12'8 8.5
2015-Jun-26 06:33N 50°58' E 001°23'8 8.1
2015-Jun-26 05:33N 51°04' E 001°31'9 8.6
2015-Jun-26 04:33N 51°10' E 001°41'10 9.8
2015-Jun-26 03:33N 51°17' E 001°52'9 9.5
2015-Jun-26 02:33N 51°24' E 002°03'1010.0
2015-Jun-26 01:33N 51°20' E 002°18'1010.4
2015-Jun-26 00:33N 51°23' E 002°34'9 9.1
2015-Jun-25 23:33N 51°22' E 002°48'1010.4
2015-Jun-25 22:33N 51°24' E 003°04'1110.8
2015-Jun-25 21:30N 51°25' E 003°23'1010.4
2015-Jun-25 20:33N 51°25' E 003°39'8 8.1
2015-Jun-25 19:33N 51°20' E 003°49'4 3.9
2015-Jun-25 18:33N 51°16' E 003°50'8 8.4
2015-Jun-25 17:33N 51°08' E 003°46'3 2.5
2015-Jun-25 16:32N 51°06' E 003°45'0 0.0
2015-Jun-25 15:32N 51°06' E 003°45'0 0.0
2015-Jun-25 14:32N 51°06' E 003°45'0 0.0
2015-Jun-25 13:32N 51°06' E 003°45'0 0.0
2015-Jun-25 12:32N 51°06' E 003°45'0 0.0
2015-Jun-25 11:32N 51°06' E 003°45'0 0.0
2015-Jun-25 10:32N 51°06' E 003°45'0 0.0
2015-Jun-25 09:32N 51°06' E 003°45'0 0.0
2015-Jun-25 08:32N 51°06' E 003°45'0 0.3
2015-Jun-25 07:33N 51°06' E 003°45'0 0.5
2015-Jun-25 06:33N 51°05' E 003°45'0 0.0
2015-Jun-25 05:33N 51°05' E 003°45'0 0.0
2015-Jun-25 04:33N 51°05' E 003°45'0 0.0
2015-Jun-25 03:33N 51°05' E 003°45'0 0.0
2015-Jun-25 02:30N 51°05' E 003°45'0 0.0
2015-Jun-25 01:33N 51°05' E 003°45'0 0.0
2015-Jun-25 00:30N 51°05' E 003°45'0 0.0
2015-Jun-24 23:33N 51°05' E 003°45'0 0.0
2015-Jun-24 22:33N 51°05' E 003°45'0 0.0
2015-Jun-24 21:33N 51°05' E 003°45'0 0.0
2015-Jun-24 20:31N 51°05' E 003°45'0 0.0
2015-Jun-24 19:31N 51°05' E 003°45'0 0.0
2015-Jun-24 18:31N 51°05' E 003°45'0 0.0
2015-Jun-24 17:31N 51°05' E 003°45'0 0.0
2015-Jun-24 16:31N 51°05' E 003°45'0 0.0
2015-Jun-24 15:31N 51°05' E 003°45'0 0.0
2015-Jun-24 14:31N 51°05' E 003°45'0 0.0
2015-Jun-24 13:28N 51°05' E 003°45'0 0.0
2015-Jun-24 12:31N 51°05' E 003°45'0 0.0
2015-Jun-24 11:31N 51°05' E 003°45'0 0.0
2015-Jun-24 10:31N 51°05' E 003°45'0 0.0
2015-Jun-24 09:31N 51°05' E 003°45'0 0.0
2015-Jun-24 08:31N 51°05' E 003°45'0 0.0
2015-Jun-24 07:31N 51°05' E 003°45'0 0.0
2015-Jun-24 06:31N 51°05' E 003°45'0 0.0
2015-Jun-24 05:28N 51°05' E 003°45'0 0.0
2015-Jun-24 04:28N 51°05' E 003°45'0 0.0
2015-Jun-24 03:31N 51°05' E 003°45'0 0.0
2015-Jun-24 02:31N 51°05' E 003°45'0 0.0
2015-Jun-24 01:31N 51°05' E 003°45'0 0.0
2015-Jun-24 00:31N 51°05' E 003°45'0 0.0
2015-Jun-23 23:28N 51°05' E 003°45'0 0.0
2015-Jun-23 22:31N 51°05' E 003°45'0 0.0
2015-Jun-23 21:28N 51°05' E 003°45'0 0.0
2015-Jun-23 20:31N 51°05' E 003°45'0 0.0
2015-Jun-23 19:31N 51°05' E 003°45'0 0.0
2015-Jun-23 19:01N 51°05' E 003°45'  
Track history (hours):
 
Tides and Currents Weather Stations Pressure Air Temp Water Temp Dewpoint Dewpoint Depression Visibility Wind Speed Wind Dir Waves Ship Positions

Hagen

Last reported at 2015-Jul-03 12:33 UTC. Time now 2015-Jul-05 04:22 UTC.
Position N 53°42' W 006°07'.

Length 89 m; draft 6.2 m.

Type: Cargo ship. MMSI: 304010898.

Date/timePositionNaut miles runAvg speedWind from/ knotsBaromVisibWave heightAir tempDewpointWater temp
2015-Jul-03 12:33N 53°42' W 006°07'8610.7
2015-Jul-03 04:31N 52°18' W 005°41'9 8.2
2015-Jul-03 03:23N 52°09' W 005°42'6 7.2
2015-Jul-03 02:33N 52°03' W 005°43'8 7.2
2015-Jul-03 01:27N 51°55' W 005°44'308 9.6
2015-Jul-01 17:12N 46°47' W 005°07'20 9.7
2015-Jul-01 15:09N 46°29' W 004°55'175 9.3
2015-Jun-30 20:22N 43°47' W 003°20'7 8.9
2015-Jun-30 19:33N 43°41' W 003°16'18 8.2
2015-Jun-30 17:20N 43°24' W 003°06'10 0.5
2015-Jun-29 21:14N 43°31' W 003°14'20 7.2
2015-Jun-29 18:27N 43°32' W 003°42'61 2.7
2015-Jun-28 19:33N 44°29' W 004°14'123 9.4
2015-Jun-28 06:33N 46°26' W 005°09'2410.1
2015-Jun-28 04:11N 46°48' W 005°21'1110.3
2015-Jun-28 03:05N 46°59' W 005°27'610.1
2015-Jun-28 02:31N 47°04' W 005°29'1010.3
2015-Jun-28 01:33N 47°14' W 005°34'61 9.8
2015-Jun-27 19:22N 48°13' W 005°52'2810.0
2015-Jun-27 16:33N 48°41' W 005°57'112 9.0
2015-Jun-27 04:04N 49°44' W 003°34'44 8.9
2015-Jun-26 23:08N 50°03' W 002°32'2110.9
2015-Jun-26 21:14N 50°08' W 002°01'55 9.6
2015-Jun-26 15:32N 50°23' W 000°39'10 8.1
2015-Jun-26 14:20N 50°25' W 000°24'20 9.5
2015-Jun-26 12:11N 50°31' E 000°07'610.4
2015-Jun-26 11:33N 50°33' E 000°17'1110.6
2015-Jun-26 10:33N 50°37' E 000°32'1010.4
2015-Jun-26 09:33N 50°42' E 000°46'1110.5
2015-Jun-26 08:33N 50°48' E 000°59'9 9.2
2015-Jun-26 07:33N 50°53' E 001°12'8 8.5
2015-Jun-26 06:33N 50°58' E 001°23'8 8.1
2015-Jun-26 05:33N 51°04' E 001°31'9 8.6
2015-Jun-26 04:33N 51°10' E 001°41'10 9.8
2015-Jun-26 03:33N 51°17' E 001°52'9 9.5
2015-Jun-26 02:33N 51°24' E 002°03'1010.0
2015-Jun-26 01:33N 51°20' E 002°18'1010.4
2015-Jun-26 00:33N 51°23' E 002°34'9 9.1
2015-Jun-25 23:33N 51°22' E 002°48'1010.4
2015-Jun-25 22:33N 51°24' E 003°04'1110.8
2015-Jun-25 21:30N 51°25' E 003°23'1010.4
2015-Jun-25 20:33N 51°25' E 003°39'8 8.1
2015-Jun-25 19:33N 51°20' E 003°49'4 3.9
2015-Jun-25 18:33N 51°16' E 003°50'8 8.4
2015-Jun-25 17:33N 51°08' E 003°46'3 2.5
2015-Jun-25 16:32N 51°06' E 003°45'0 0.0
2015-Jun-25 15:32N 51°06' E 003°45'0 0.0
2015-Jun-25 14:32N 51°06' E 003°45'0 0.0
2015-Jun-25 13:32N 51°06' E 003°45'0 0.0
2015-Jun-25 12:32N 51°06' E 003°45'0 0.0
2015-Jun-25 11:32N 51°06' E 003°45'0 0.0
2015-Jun-25 10:32N 51°06' E 003°45'0 0.0
2015-Jun-25 09:32N 51°06' E 003°45'0 0.0
2015-Jun-25 08:32N 51°06' E 003°45'0 0.3
2015-Jun-25 07:33N 51°06' E 003°45'0 0.5
2015-Jun-25 06:33N 51°05' E 003°45'0 0.0
2015-Jun-25 05:33N 51°05' E 003°45'0 0.0
2015-Jun-25 04:33N 51°05' E 003°45'0 0.0
2015-Jun-25 03:33N 51°05' E 003°45'0 0.0
2015-Jun-25 02:30N 51°05' E 003°45'0 0.0
2015-Jun-25 01:33N 51°05' E 003°45'0 0.0
2015-Jun-25 00:30N 51°05' E 003°45'0 0.0
2015-Jun-24 23:33N 51°05' E 003°45'0 0.0
2015-Jun-24 22:33N 51°05' E 003°45'0 0.0
2015-Jun-24 21:33N 51°05' E 003°45'0 0.0
2015-Jun-24 20:31N 51°05' E 003°45'0 0.0
2015-Jun-24 19:31N 51°05' E 003°45'0 0.0
2015-Jun-24 18:31N 51°05' E 003°45'0 0.0
2015-Jun-24 17:31N 51°05' E 003°45'0 0.0
2015-Jun-24 16:31N 51°05' E 003°45'0 0.0
2015-Jun-24 15:31N 51°05' E 003°45'0 0.0
2015-Jun-24 14:31N 51°05' E 003°45'0 0.0
2015-Jun-24 13:28N 51°05' E 003°45'0 0.0
2015-Jun-24 12:31N 51°05' E 003°45'0 0.0
2015-Jun-24 11:31N 51°05' E 003°45'0 0.0
2015-Jun-24 10:31N 51°05' E 003°45'0 0.0
2015-Jun-24 09:31N 51°05' E 003°45'0 0.0
2015-Jun-24 08:31N 51°05' E 003°45'0 0.0
2015-Jun-24 07:31N 51°05' E 003°45'0 0.0
2015-Jun-24 06:31N 51°05' E 003°45'0 0.0
2015-Jun-24 05:28N 51°05' E 003°45'0 0.0
2015-Jun-24 04:28N 51°05' E 003°45'0 0.0
2015-Jun-24 03:31N 51°05' E 003°45'0 0.0
2015-Jun-24 02:31N 51°05' E 003°45'0 0.0
2015-Jun-24 01:31N 51°05' E 003°45'0 0.0
2015-Jun-24 00:31N 51°05' E 003°45'0 0.0
2015-Jun-23 23:28N 51°05' E 003°45'0 0.0
2015-Jun-23 22:31N 51°05' E 003°45'0 0.0
2015-Jun-23 21:28N 51°05' E 003°45'0 0.0
2015-Jun-23 20:31N 51°05' E 003°45'0 0.0
2015-Jun-23 19:31N 51°05' E 003°45'0 0.0
2015-Jun-23 19:01N 51°05' E 003°45'  

Dump ship's entire track history